sensor_id;sensor_type;location;lat;lon;timestamp;temperature;humidity
37786;DHT22;23625;48.784;9.336;2024-02-28T00:00:12;7.00;99.90
37786;DHT22;23625;48.784;9.336;2024-02-28T00:02:38;7.00;99.90
37786;DHT22;23625;48.784;9.336;2024-02-28T00:05:03;7.00;99.90
37786;DHT22;23625;48.784;9.336;2024-02-28T00:07:29;7.00;99.90
37786;DHT22;23625;48.784;9.336;2024-02-28T00:09:55;7.00;99.90
37786;DHT22;23625;48.784;9.336;2024-02-28T00:12:23;7.00;99.90
37786;DHT22;23625;48.784;9.336;2024-02-28T00:14:51;7.00;99.90
37786;DHT22;23625;48.784;9.336;2024-02-28T00:17:16;7.10;99.90
37786;DHT22;23625;48.784;9.336;2024-02-28T00:19:42;7.10;99.90
37786;DHT22;23625;48.784;9.336;2024-02-28T00:22:09;7.10;99.90
37786;DHT22;23625;48.784;9.336;2024-02-28T00:24:34;7.10;99.90
37786;DHT22;23625;48.784;9.336;2024-02-28T00:27:00;7.10;99.90
37786;DHT22;23625;48.784;9.336;2024-02-28T00:29:26;7.20;99.90
37786;DHT22;23625;48.784;9.336;2024-02-28T00:31:52;7.20;99.90
37786;DHT22;23625;48.784;9.336;2024-02-28T00:34:17;7.20;99.90
37786;DHT22;23625;48.784;9.336;2024-02-28T00:36:43;7.30;99.90
37786;DHT22;23625;48.784;9.336;2024-02-28T00:39:10;7.30;99.90
37786;DHT22;23625;48.784;9.336;2024-02-28T00:41:35;7.20;99.90
37786;DHT22;23625;48.784;9.336;2024-02-28T00:44:02;7.20;99.90
37786;DHT22;23625;48.784;9.336;2024-02-28T00:46:28;7.20;99.90
37786;DHT22;23625;48.784;9.336;2024-02-28T00:48:53;7.20;99.90
37786;DHT22;23625;48.784;9.336;2024-02-28T00:51:19;7.20;99.90
37786;DHT22;23625;48.784;9.336;2024-02-28T00:53:44;7.30;99.90
37786;DHT22;23625;48.784;9.336;2024-02-28T00:56:10;7.20;99.90
37786;DHT22;23625;48.784;9.336;2024-02-28T00:58:36;7.20;99.90
37786;DHT22;23625;48.784;9.336;2024-02-28T01:01:01;7.20;99.90
37786;DHT22;23625;48.784;9.336;2024-02-28T01:03:27;7.20;99.90
37786;DHT22;23625;48.784;9.336;2024-02-28T01:05:52;7.20;99.90
37786;DHT22;23625;48.784;9.336;2024-02-28T01:08:18;7.20;99.90
37786;DHT22;23625;48.784;9.336;2024-02-28T01:10:44;7.20;99.90
37786;DHT22;23625;48.784;9.336;2024-02-28T01:13:10;7.20;99.90
37786;DHT22;23625;48.784;9.336;2024-02-28T01:15:36;7.20;99.90
37786;DHT22;23625;48.784;9.336;2024-02-28T01:18:01;7.20;99.90
37786;DHT22;23625;48.784;9.336;2024-02-28T01:20:27;7.10;99.90
37786;DHT22;23625;48.784;9.336;2024-02-28T01:22:52;7.20;99.90
37786;DHT22;23625;48.784;9.336;2024-02-28T01:25:18;7.10;99.90
37786;DHT22;23625;48.784;9.336;2024-02-28T01:27:44;7.10;99.90
37786;DHT22;23625;48.784;9.336;2024-02-28T01:30:10;7.10;99.90
37786;DHT22;23625;48.784;9.336;2024-02-28T01:32:35;7.10;99.90
37786;DHT22;23625;48.784;9.336;2024-02-28T01:35:02;7.20;99.90
37786;DHT22;23625;48.784;9.336;2024-02-28T01:37:28;7.10;99.90
37786;DHT22;23625;48.784;9.336;2024-02-28T01:39:54;7.10;99.90
37786;DHT22;23625;48.784;9.336;2024-02-28T01:42:20;7.10;99.90
37786;DHT22;23625;48.784;9.336;2024-02-28T01:44:47;7.10;99.90
37786;DHT22;23625;48.784;9.336;2024-02-28T01:47:14;7.10;99.90
37786;DHT22;23625;48.784;9.336;2024-02-28T01:49:41;7.20;99.90
37786;DHT22;23625;48.784;9.336;2024-02-28T01:52:07;7.10;99.90
37786;DHT22;23625;48.784;9.336;2024-02-28T01:54:34;7.20;99.90
37786;DHT22;23625;48.784;9.336;2024-02-28T01:57:01;7.20;99.90
37786;DHT22;23625;48.784;9.336;2024-02-28T01:59:27;7.20;99.90
37786;DHT22;23625;48.784;9.336;2024-02-28T02:01:54;7.30;99.90
37786;DHT22;23625;48.784;9.336;2024-02-28T02:04:20;7.30;99.90
37786;DHT22;23625;48.784;9.336;2024-02-28T02:06:45;7.30;99.90
37786;DHT22;23625;48.784;9.336;2024-02-28T02:09:13;7.20;99.90
37786;DHT22;23625;48.784;9.336;2024-02-28T02:11:39;7.20;99.90
37786;DHT22;23625;48.784;9.336;2024-02-28T02:14:05;7.30;99.90
37786;DHT22;23625;48.784;9.336;2024-02-28T02:16:30;7.40;99.90
37786;DHT22;23625;48.784;9.336;2024-02-28T02:18:56;7.30;99.90
37786;DHT22;23625;48.784;9.336;2024-02-28T02:21:30;7.30;99.90
37786;DHT22;23625;48.784;9.336;2024-02-28T02:23:56;7.30;99.90
37786;DHT22;23625;48.784;9.336;2024-02-28T02:26:21;7.30;99.90
37786;DHT22;23625;48.784;9.336;2024-02-28T02:28:47;7.20;99.90
37786;DHT22;23625;48.784;9.336;2024-02-28T02:31:13;7.20;99.90
37786;DHT22;23625;48.784;9.336;2024-02-28T02:33:39;7.20;99.90
37786;DHT22;23625;48.784;9.336;2024-02-28T02:36:05;7.20;99.90
37786;DHT22;23625;48.784;9.336;2024-02-28T02:38:30;7.20;99.90
37786;DHT22;23625;48.784;9.336;2024-02-28T02:40:56;7.20;99.90
37786;DHT22;23625;48.784;9.336;2024-02-28T02:43:22;7.10;99.90
37786;DHT22;23625;48.784;9.336;2024-02-28T02:45:47;7.10;99.90
37786;DHT22;23625;48.784;9.336;2024-02-28T02:48:13;7.10;99.90
37786;DHT22;23625;48.784;9.336;2024-02-28T02:50:38;7.10;99.90
37786;DHT22;23625;48.784;9.336;2024-02-28T02:53:06;7.20;99.90
37786;DHT22;23625;48.784;9.336;2024-02-28T02:55:32;7.20;99.90
37786;DHT22;23625;48.784;9.336;2024-02-28T02:57:58;7.20;99.90
37786;DHT22;23625;48.784;9.336;2024-02-28T03:00:23;7.20;99.90
37786;DHT22;23625;48.784;9.336;2024-02-28T03:02:49;7.20;99.90
37786;DHT22;23625;48.784;9.336;2024-02-28T03:05:14;7.20;99.90
37786;DHT22;23625;48.784;9.336;2024-02-28T03:07:40;7.20;99.90
37786;DHT22;23625;48.784;9.336;2024-02-28T03:10:06;7.20;99.90
37786;DHT22;23625;48.784;9.336;2024-02-28T03:12:32;7.10;99.90
37786;DHT22;23625;48.784;9.336;2024-02-28T03:14:58;7.10;99.90
37786;DHT22;23625;48.784;9.336;2024-02-28T03:17:23;7.10;99.90
37786;DHT22;23625;48.784;9.336;2024-02-28T03:19:49;7.20;99.90
37786;DHT22;23625;48.784;9.336;2024-02-28T03:22:15;7.10;99.90
37786;DHT22;23625;48.784;9.336;2024-02-28T03:24:40;7.10;99.90
37786;DHT22;23625;48.784;9.336;2024-02-28T03:27:06;7.10;99.90
37786;DHT22;23625;48.784;9.336;2024-02-28T03:29:32;7.10;99.90
37786;DHT22;23625;48.784;9.336;2024-02-28T03:31:58;7.10;99.90
37786;DHT22;23625;48.784;9.336;2024-02-28T03:34:24;7.10;99.90
37786;DHT22;23625;48.784;9.336;2024-02-28T03:36:50;7.10;99.90
37786;DHT22;23625;48.784;9.336;2024-02-28T03:39:16;7.10;99.90
37786;DHT22;23625;48.784;9.336;2024-02-28T03:41:42;7.10;99.90
37786;DHT22;23625;48.784;9.336;2024-02-28T03:44:07;7.10;99.90
37786;DHT22;23625;48.784;9.336;2024-02-28T03:46:33;7.20;99.90
37786;DHT22;23625;48.784;9.336;2024-02-28T03:48:59;7.10;99.90
37786;DHT22;23625;48.784;9.336;2024-02-28T03:51:24;7.10;99.90
37786;DHT22;23625;48.784;9.336;2024-02-28T03:53:50;7.10;99.90
37786;DHT22;23625;48.784;9.336;2024-02-28T03:56:25;7.10;99.90
37786;DHT22;23625;48.784;9.336;2024-02-28T03:58:51;7.10;99.90
37786;DHT22;23625;48.784;9.336;2024-02-28T04:01:17;7.10;99.90
37786;DHT22;23625;48.784;9.336;2024-02-28T04:03:43;7.10;99.90
37786;DHT22;23625;48.784;9.336;2024-02-28T04:06:09;7.00;99.90
37786;DHT22;23625;48.784;9.336;2024-02-28T04:08:34;7.00;99.90
37786;DHT22;23625;48.784;9.336;2024-02-28T04:11:00;7.00;99.90
37786;DHT22;23625;48.784;9.336;2024-02-28T04:13:25;7.00;99.90
37786;DHT22;23625;48.784;9.336;2024-02-28T04:15:51;7.00;99.90
37786;DHT22;23625;48.784;9.336;2024-02-28T04:18:17;7.00;99.90
37786;DHT22;23625;48.784;9.336;2024-02-28T04:20:42;7.00;99.90
37786;DHT22;23625;48.784;9.336;2024-02-28T04:23:08;7.00;99.90
37786;DHT22;23625;48.784;9.336;2024-02-28T04:25:34;7.00;99.90
37786;DHT22;23625;48.784;9.336;2024-02-28T04:28:01;7.10;99.90
37786;DHT22;23625;48.784;9.336;2024-02-28T04:30:26;7.00;99.90
37786;DHT22;23625;48.784;9.336;2024-02-28T04:32:52;7.00;99.90
37786;DHT22;23625;48.784;9.336;2024-02-28T04:35:18;7.00;99.90
37786;DHT22;23625;48.784;9.336;2024-02-28T04:37:45;7.00;99.90
37786;DHT22;23625;48.784;9.336;2024-02-28T04:40:11;7.00;99.90
37786;DHT22;23625;48.784;9.336;2024-02-28T04:42:37;7.00;99.90
37786;DHT22;23625;48.784;9.336;2024-02-28T04:45:03;7.00;99.90
37786;DHT22;23625;48.784;9.336;2024-02-28T04:47:29;7.00;99.90
37786;DHT22;23625;48.784;9.336;2024-02-28T04:49:56;7.00;99.90
37786;DHT22;23625;48.784;9.336;2024-02-28T04:52:21;7.10;99.90
37786;DHT22;23625;48.784;9.336;2024-02-28T04:54:47;7.00;99.90
37786;DHT22;23625;48.784;9.336;2024-02-28T04:57:13;6.90;99.90
37786;DHT22;23625;48.784;9.336;2024-02-28T04:59:38;7.00;99.90
37786;DHT22;23625;48.784;9.336;2024-02-28T05:02:04;7.10;99.90
37786;DHT22;23625;48.784;9.336;2024-02-28T05:04:30;7.10;99.90
37786;DHT22;23625;48.784;9.336;2024-02-28T05:06:56;7.00;99.90
37786;DHT22;23625;48.784;9.336;2024-02-28T05:09:21;6.90;99.90
37786;DHT22;23625;48.784;9.336;2024-02-28T05:11:47;7.00;99.90
37786;DHT22;23625;48.784;9.336;2024-02-28T05:14:12;6.90;99.90
37786;DHT22;23625;48.784;9.336;2024-02-28T05:16:38;6.90;99.90
37786;DHT22;23625;48.784;9.336;2024-02-28T05:19:03;7.00;99.90
37786;DHT22;23625;48.784;9.336;2024-02-28T05:21:29;7.00;99.90
37786;DHT22;23625;48.784;9.336;2024-02-28T05:23:55;7.00;99.90
37786;DHT22;23625;48.784;9.336;2024-02-28T05:26:21;6.90;99.90
37786;DHT22;23625;48.784;9.336;2024-02-28T05:28:46;6.90;99.90
37786;DHT22;23625;48.784;9.336;2024-02-28T05:31:26;6.90;99.90
37786;DHT22;23625;48.784;9.336;2024-02-28T05:33:53;6.80;99.90
37786;DHT22;23625;48.784;9.336;2024-02-28T05:36:20;6.80;99.90
37786;DHT22;23625;48.784;9.336;2024-02-28T05:38:46;6.80;99.90
37786;DHT22;23625;48.784;9.336;2024-02-28T05:41:11;6.70;99.90
37786;DHT22;23625;48.784;9.336;2024-02-28T05:43:38;6.60;99.90
37786;DHT22;23625;48.784;9.336;2024-02-28T05:46:03;6.70;99.90
37786;DHT22;23625;48.784;9.336;2024-02-28T05:48:29;6.70;99.90
37786;DHT22;23625;48.784;9.336;2024-02-28T05:50:55;6.70;99.90
37786;DHT22;23625;48.784;9.336;2024-02-28T05:53:20;6.70;99.90
37786;DHT22;23625;48.784;9.336;2024-02-28T05:55:46;6.70;99.90
37786;DHT22;23625;48.784;9.336;2024-02-28T05:58:13;6.60;99.90
37786;DHT22;23625;48.784;9.336;2024-02-28T06:00:39;6.60;99.90
37786;DHT22;23625;48.784;9.336;2024-02-28T06:03:04;6.50;99.90
37786;DHT22;23625;48.784;9.336;2024-02-28T06:05:30;6.60;99.90
37786;DHT22;23625;48.784;9.336;2024-02-28T06:07:56;6.60;99.90
37786;DHT22;23625;48.784;9.336;2024-02-28T06:10:21;6.60;99.90
37786;DHT22;23625;48.784;9.336;2024-02-28T06:12:47;6.70;99.90
37786;DHT22;23625;48.784;9.336;2024-02-28T06:15:13;6.60;99.90
37786;DHT22;23625;48.784;9.336;2024-02-28T06:17:39;6.50;99.90
37786;DHT22;23625;48.784;9.336;2024-02-28T06:20:05;6.50;99.90
37786;DHT22;23625;48.784;9.336;2024-02-28T06:22:31;6.50;99.90
37786;DHT22;23625;48.784;9.336;2024-02-28T06:24:57;6.50;99.90
37786;DHT22;23625;48.784;9.336;2024-02-28T06:27:22;6.40;99.90
37786;DHT22;23625;48.784;9.336;2024-02-28T06:29:50;6.40;99.90
37786;DHT22;23625;48.784;9.336;2024-02-28T06:32:16;6.50;99.90
37786;DHT22;23625;48.784;9.336;2024-02-28T06:34:41;6.50;99.90
37786;DHT22;23625;48.784;9.336;2024-02-28T06:37:07;6.40;99.90
37786;DHT22;23625;48.784;9.336;2024-02-28T06:39:33;6.40;99.90
37786;DHT22;23625;48.784;9.336;2024-02-28T06:41:58;6.40;99.90
37786;DHT22;23625;48.784;9.336;2024-02-28T06:44:24;6.40;99.90
37786;DHT22;23625;48.784;9.336;2024-02-28T06:46:50;6.30;99.90
37786;DHT22;23625;48.784;9.336;2024-02-28T06:49:15;6.30;99.90
37786;DHT22;23625;48.784;9.336;2024-02-28T06:51:45;6.30;99.90
37786;DHT22;23625;48.784;9.336;2024-02-28T06:54:11;6.40;99.90
37786;DHT22;23625;48.784;9.336;2024-02-28T06:56:36;6.40;99.90
37786;DHT22;23625;48.784;9.336;2024-02-28T06:59:02;6.50;99.90
37786;DHT22;23625;48.784;9.336;2024-02-28T07:01:29;6.40;99.90
37786;DHT22;23625;48.784;9.336;2024-02-28T07:03:54;6.30;99.90
37786;DHT22;23625;48.784;9.336;2024-02-28T07:06:20;6.30;99.90
37786;DHT22;23625;48.784;9.336;2024-02-28T07:08:45;6.40;99.90
37786;DHT22;23625;48.784;9.336;2024-02-28T07:11:15;6.30;99.90
37786;DHT22;23625;48.784;9.336;2024-02-28T07:13:40;6.40;99.90
37786;DHT22;23625;48.784;9.336;2024-02-28T07:16:06;6.40;99.90
37786;DHT22;23625;48.784;9.336;2024-02-28T07:18:32;6.40;99.90
37786;DHT22;23625;48.784;9.336;2024-02-28T07:20:58;6.40;99.90
37786;DHT22;23625;48.784;9.336;2024-02-28T07:23:23;6.40;99.90
37786;DHT22;23625;48.784;9.336;2024-02-28T07:25:49;6.40;99.90
37786;DHT22;23625;48.784;9.336;2024-02-28T07:28:14;6.40;99.90
37786;DHT22;23625;48.784;9.336;2024-02-28T07:30:40;6.60;99.90
37786;DHT22;23625;48.784;9.336;2024-02-28T07:33:06;6.70;99.90
37786;DHT22;23625;48.784;9.336;2024-02-28T07:35:31;6.60;99.90
37786;DHT22;23625;48.784;9.336;2024-02-28T07:37:57;6.60;99.90
37786;DHT22;23625;48.784;9.336;2024-02-28T07:40:22;6.70;99.90
37786;DHT22;23625;48.784;9.336;2024-02-28T07:42:48;6.70;99.90
37786;DHT22;23625;48.784;9.336;2024-02-28T07:45:13;6.70;99.90
37786;DHT22;23625;48.784;9.336;2024-02-28T07:47:39;6.70;99.90
37786;DHT22;23625;48.784;9.336;2024-02-28T07:50:06;6.70;99.90
37786;DHT22;23625;48.784;9.336;2024-02-28T07:52:32;6.60;99.90
37786;DHT22;23625;48.784;9.336;2024-02-28T07:55:00;6.70;99.90
37786;DHT22;23625;48.784;9.336;2024-02-28T07:57:27;6.60;99.90
37786;DHT22;23625;48.784;9.336;2024-02-28T07:59:52;6.70;99.90
37786;DHT22;23625;48.784;9.336;2024-02-28T08:02:18;6.60;99.90
37786;DHT22;23625;48.784;9.336;2024-02-28T08:04:45;6.60;99.90
37786;DHT22;23625;48.784;9.336;2024-02-28T08:07:11;6.50;99.90
37786;DHT22;23625;48.784;9.336;2024-02-28T08:09:36;6.60;99.90
37786;DHT22;23625;48.784;9.336;2024-02-28T08:12:02;6.60;99.90
37786;DHT22;23625;48.784;9.336;2024-02-28T08:14:28;6.50;99.90
37786;DHT22;23625;48.784;9.336;2024-02-28T08:16:54;6.60;99.90
37786;DHT22;23625;48.784;9.336;2024-02-28T08:19:19;6.60;99.90
37786;DHT22;23625;48.784;9.336;2024-02-28T08:21:45;6.60;99.90
37786;DHT22;23625;48.784;9.336;2024-02-28T08:24:10;6.70;99.90
37786;DHT22;23625;48.784;9.336;2024-02-28T08:26:36;6.70;99.90
37786;DHT22;23625;48.784;9.336;2024-02-28T08:29:02;6.70;99.90
37786;DHT22;23625;48.784;9.336;2024-02-28T08:31:28;6.80;99.90
37786;DHT22;23625;48.784;9.336;2024-02-28T08:33:53;6.80;99.90
37786;DHT22;23625;48.784;9.336;2024-02-28T08:36:21;6.80;99.90
37786;DHT22;23625;48.784;9.336;2024-02-28T08:38:46;6.70;99.90
37786;DHT22;23625;48.784;9.336;2024-02-28T08:41:12;6.80;99.90
37786;DHT22;23625;48.784;9.336;2024-02-28T08:43:40;6.70;99.90
37786;DHT22;23625;48.784;9.336;2024-02-28T08:46:06;6.80;99.90
37786;DHT22;23625;48.784;9.336;2024-02-28T08:48:32;6.70;99.90
37786;DHT22;23625;48.784;9.336;2024-02-28T08:50:58;6.80;99.90
37786;DHT22;23625;48.784;9.336;2024-02-28T08:53:24;6.80;99.90
37786;DHT22;23625;48.784;9.336;2024-02-28T08:55:49;6.80;99.90
37786;DHT22;23625;48.784;9.336;2024-02-28T08:58:15;6.70;99.90
37786;DHT22;23625;48.784;9.336;2024-02-28T09:00:40;6.70;99.90
37786;DHT22;23625;48.784;9.336;2024-02-28T09:03:06;6.70;99.90
37786;DHT22;23625;48.784;9.336;2024-02-28T09:05:31;6.80;99.90
37786;DHT22;23625;48.784;9.336;2024-02-28T09:07:57;6.80;99.90
37786;DHT22;23625;48.784;9.336;2024-02-28T09:10:23;6.70;99.90
37786;DHT22;23625;48.784;9.336;2024-02-28T09:12:50;6.70;99.90
37786;DHT22;23625;48.784;9.336;2024-02-28T09:15:16;6.70;99.90
37786;DHT22;23625;48.784;9.336;2024-02-28T09:17:41;6.70;99.90
37786;DHT22;23625;48.784;9.336;2024-02-28T09:20:07;6.70;99.90
37786;DHT22;23625;48.784;9.336;2024-02-28T09:22:33;6.80;99.90
37786;DHT22;23625;48.784;9.336;2024-02-28T09:25:00;6.80;99.90
37786;DHT22;23625;48.784;9.336;2024-02-28T09:27:28;6.80;99.90
37786;DHT22;23625;48.784;9.336;2024-02-28T09:29:53;6.90;99.90
37786;DHT22;23625;48.784;9.336;2024-02-28T09:32:19;6.80;99.90
37786;DHT22;23625;48.784;9.336;2024-02-28T09:34:44;6.80;99.90
37786;DHT22;23625;48.784;9.336;2024-02-28T09:37:10;6.90;99.90
37786;DHT22;23625;48.784;9.336;2024-02-28T09:39:38;6.90;99.90
37786;DHT22;23625;48.784;9.336;2024-02-28T09:42:06;6.90;99.90
37786;DHT22;23625;48.784;9.336;2024-02-28T09:44:32;6.90;99.90
37786;DHT22;23625;48.784;9.336;2024-02-28T09:46:58;7.00;99.90
37786;DHT22;23625;48.784;9.336;2024-02-28T09:49:25;7.00;99.90
37786;DHT22;23625;48.784;9.336;2024-02-28T09:51:52;7.00;99.90
37786;DHT22;23625;48.784;9.336;2024-02-28T09:54:18;7.00;99.90
37786;DHT22;23625;48.784;9.336;2024-02-28T09:56:43;7.00;99.90
37786;DHT22;23625;48.784;9.336;2024-02-28T09:59:10;7.00;99.90
37786;DHT22;23625;48.784;9.336;2024-02-28T10:01:42;7.10;99.90
37786;DHT22;23625;48.784;9.336;2024-02-28T10:04:10;7.10;99.90
37786;DHT22;23625;48.784;9.336;2024-02-28T10:06:39;7.10;99.90
37786;DHT22;23625;48.784;9.336;2024-02-28T10:09:04;7.20;99.90
37786;DHT22;23625;48.784;9.336;2024-02-28T10:11:30;7.20;99.90
37786;DHT22;23625;48.784;9.336;2024-02-28T10:13:56;7.10;99.90
37786;DHT22;23625;48.784;9.336;2024-02-28T10:16:22;7.10;99.90
37786;DHT22;23625;48.784;9.336;2024-02-28T10:18:47;7.20;99.90
37786;DHT22;23625;48.784;9.336;2024-02-28T10:21:14;7.20;99.90
37786;DHT22;23625;48.784;9.336;2024-02-28T10:23:46;7.20;99.90
37786;DHT22;23625;48.784;9.336;2024-02-28T10:26:12;7.10;99.90
37786;DHT22;23625;48.784;9.336;2024-02-28T10:28:38;7.20;99.90
37786;DHT22;23625;48.784;9.336;2024-02-28T10:31:06;7.20;99.90
37786;DHT22;23625;48.784;9.336;2024-02-28T10:33:32;7.20;99.90
37786;DHT22;23625;48.784;9.336;2024-02-28T10:35:59;7.30;99.90
37786;DHT22;23625;48.784;9.336;2024-02-28T10:38:26;7.30;99.90
37786;DHT22;23625;48.784;9.336;2024-02-28T10:40:53;7.30;99.90
37786;DHT22;23625;48.784;9.336;2024-02-28T10:43:19;7.40;99.90
37786;DHT22;23625;48.784;9.336;2024-02-28T10:45:45;7.40;99.90
37786;DHT22;23625;48.784;9.336;2024-02-28T10:48:14;7.30;99.90
37786;DHT22;23625;48.784;9.336;2024-02-28T10:50:40;7.30;99.90
37786;DHT22;23625;48.784;9.336;2024-02-28T10:53:13;7.20;99.90
37786;DHT22;23625;48.784;9.336;2024-02-28T10:55:40;7.30;99.90
37786;DHT22;23625;48.784;9.336;2024-02-28T10:58:08;7.50;99.90
37786;DHT22;23625;48.784;9.336;2024-02-28T11:00:36;7.60;99.90
37786;DHT22;23625;48.784;9.336;2024-02-28T11:03:04;7.60;99.90
37786;DHT22;23625;48.784;9.336;2024-02-28T11:05:37;7.60;99.90
37786;DHT22;23625;48.784;9.336;2024-02-28T11:08:08;7.50;99.90
37786;DHT22;23625;48.784;9.336;2024-02-28T11:10:35;7.40;99.90
37786;DHT22;23625;48.784;9.336;2024-02-28T11:13:00;7.50;99.90
37786;DHT22;23625;48.784;9.336;2024-02-28T11:15:26;7.60;99.90
37786;DHT22;23625;48.784;9.336;2024-02-28T11:17:53;7.60;99.90
37786;DHT22;23625;48.784;9.336;2024-02-28T11:20:19;7.60;99.90
37786;DHT22;23625;48.784;9.336;2024-02-28T11:22:44;7.60;99.90
37786;DHT22;23625;48.784;9.336;2024-02-28T11:25:10;7.50;99.90
37786;DHT22;23625;48.784;9.336;2024-02-28T11:27:46;7.60;99.90
37786;DHT22;23625;48.784;9.336;2024-02-28T11:30:13;7.60;99.90
37786;DHT22;23625;48.784;9.336;2024-02-28T11:32:38;7.60;99.90
37786;DHT22;23625;48.784;9.336;2024-02-28T11:35:04;7.60;99.90
37786;DHT22;23625;48.784;9.336;2024-02-28T11:37:31;7.50;99.90
37786;DHT22;23625;48.784;9.336;2024-02-28T11:39:58;7.50;99.90
37786;DHT22;23625;48.784;9.336;2024-02-28T11:42:24;7.50;99.90
37786;DHT22;23625;48.784;9.336;2024-02-28T11:44:55;7.40;99.90
37786;DHT22;23625;48.784;9.336;2024-02-28T11:47:23;7.50;99.90
37786;DHT22;23625;48.784;9.336;2024-02-28T11:49:49;7.40;99.90
37786;DHT22;23625;48.784;9.336;2024-02-28T11:52:14;7.50;99.90
37786;DHT22;23625;48.784;9.336;2024-02-28T11:54:40;7.50;99.90
37786;DHT22;23625;48.784;9.336;2024-02-28T11:57:07;7.50;99.90
37786;DHT22;23625;48.784;9.336;2024-02-28T11:59:33;7.50;99.90
37786;DHT22;23625;48.784;9.336;2024-02-28T12:01:59;7.50;99.90
37786;DHT22;23625;48.784;9.336;2024-02-28T12:04:24;7.50;99.90
37786;DHT22;23625;48.784;9.336;2024-02-28T12:06:53;7.60;99.90
37786;DHT22;23625;48.784;9.336;2024-02-28T12:09:19;7.50;99.90
37786;DHT22;23625;48.784;9.336;2024-02-28T12:11:45;7.50;99.90
37786;DHT22;23625;48.784;9.336;2024-02-28T12:14:12;7.60;99.90
37786;DHT22;23625;48.784;9.336;2024-02-28T12:16:41;7.50;99.90
37786;DHT22;23625;48.784;9.336;2024-02-28T12:19:11;7.60;99.90
37786;DHT22;23625;48.784;9.336;2024-02-28T12:21:37;7.50;99.90
37786;DHT22;23625;48.784;9.336;2024-02-28T12:24:04;7.50;99.90
37786;DHT22;23625;48.784;9.336;2024-02-28T12:26:30;7.50;99.90
37786;DHT22;23625;48.784;9.336;2024-02-28T12:28:55;7.50;99.90
37786;DHT22;23625;48.784;9.336;2024-02-28T12:31:21;7.50;99.90
37786;DHT22;23625;48.784;9.336;2024-02-28T12:33:47;7.60;99.90
37786;DHT22;23625;48.784;9.336;2024-02-28T12:36:13;7.60;99.90
37786;DHT22;23625;48.784;9.336;2024-02-28T12:38:39;7.60;99.90
37786;DHT22;23625;48.784;9.336;2024-02-28T12:41:06;7.60;99.90
37786;DHT22;23625;48.784;9.336;2024-02-28T12:43:32;7.60;99.90
37786;DHT22;23625;48.784;9.336;2024-02-28T12:45:58;7.60;99.90
37786;DHT22;23625;48.784;9.336;2024-02-28T12:48:24;7.60;99.90
37786;DHT22;23625;48.784;9.336;2024-02-28T12:50:49;7.60;99.90
37786;DHT22;23625;48.784;9.336;2024-02-28T12:53:15;7.60;99.90
37786;DHT22;23625;48.784;9.336;2024-02-28T12:55:41;7.60;99.90
37786;DHT22;23625;48.784;9.336;2024-02-28T12:58:07;7.70;99.90
37786;DHT22;23625;48.784;9.336;2024-02-28T13:00:33;7.70;99.90
37786;DHT22;23625;48.784;9.336;2024-02-28T13:02:59;7.70;99.90
37786;DHT22;23625;48.784;9.336;2024-02-28T13:05:24;7.70;99.90
37786;DHT22;23625;48.784;9.336;2024-02-28T13:07:51;7.60;99.90
37786;DHT22;23625;48.784;9.336;2024-02-28T13:10:18;7.50;99.90
37786;DHT22;23625;48.784;9.336;2024-02-28T13:12:43;7.50;99.90
37786;DHT22;23625;48.784;9.336;2024-02-28T13:15:09;7.50;99.90
37786;DHT22;23625;48.784;9.336;2024-02-28T13:17:35;7.40;99.90
37786;DHT22;23625;48.784;9.336;2024-02-28T13:20:00;7.40;99.90
37786;DHT22;23625;48.784;9.336;2024-02-28T13:22:26;7.50;99.90
37786;DHT22;23625;48.784;9.336;2024-02-28T13:24:51;7.50;99.90
37786;DHT22;23625;48.784;9.336;2024-02-28T13:27:17;7.60;99.90
37786;DHT22;23625;48.784;9.336;2024-02-28T13:29:42;7.50;99.90
37786;DHT22;23625;48.784;9.336;2024-02-28T13:32:08;7.50;99.90
37786;DHT22;23625;48.784;9.336;2024-02-28T13:34:34;7.50;99.90
37786;DHT22;23625;48.784;9.336;2024-02-28T13:36:59;7.50;99.90
37786;DHT22;23625;48.784;9.336;2024-02-28T13:39:25;7.50;99.90
37786;DHT22;23625;48.784;9.336;2024-02-28T13:41:52;7.50;99.90
37786;DHT22;23625;48.784;9.336;2024-02-28T13:44:18;7.50;99.90
37786;DHT22;23625;48.784;9.336;2024-02-28T13:46:46;7.70;99.90
37786;DHT22;23625;48.784;9.336;2024-02-28T13:49:16;7.60;99.90
37786;DHT22;23625;48.784;9.336;2024-02-28T13:51:42;7.70;99.90
37786;DHT22;23625;48.784;9.336;2024-02-28T13:54:08;7.60;99.90
37786;DHT22;23625;48.784;9.336;2024-02-28T13:56:34;7.60;99.90
37786;DHT22;23625;48.784;9.336;2024-02-28T13:58:59;7.60;99.90
37786;DHT22;23625;48.784;9.336;2024-02-28T14:01:25;7.60;99.90
37786;DHT22;23625;48.784;9.336;2024-02-28T14:03:51;7.50;99.90
37786;DHT22;23625;48.784;9.336;2024-02-28T14:06:16;7.70;99.90
37786;DHT22;23625;48.784;9.336;2024-02-28T14:08:42;7.60;99.90
37786;DHT22;23625;48.784;9.336;2024-02-28T14:11:08;7.70;99.90
37786;DHT22;23625;48.784;9.336;2024-02-28T14:13:33;7.50;99.90
37786;DHT22;23625;48.784;9.336;2024-02-28T14:15:59;7.60;99.90
37786;DHT22;23625;48.784;9.336;2024-02-28T14:18:24;7.60;99.90
37786;DHT22;23625;48.784;9.336;2024-02-28T14:20:50;7.60;99.90
37786;DHT22;23625;48.784;9.336;2024-02-28T14:23:16;7.60;99.90
37786;DHT22;23625;48.784;9.336;2024-02-28T14:25:43;7.70;99.90
37786;DHT22;23625;48.784;9.336;2024-02-28T14:28:08;7.60;99.90
37786;DHT22;23625;48.784;9.336;2024-02-28T14:30:34;7.70;99.90
37786;DHT22;23625;48.784;9.336;2024-02-28T14:33:00;7.70;99.90
37786;DHT22;23625;48.784;9.336;2024-02-28T14:35:26;7.60;99.90
37786;DHT22;23625;48.784;9.336;2024-02-28T14:37:51;7.60;99.90
37786;DHT22;23625;48.784;9.336;2024-02-28T14:40:18;7.60;99.90
37786;DHT22;23625;48.784;9.336;2024-02-28T14:42:44;7.60;99.90
37786;DHT22;23625;48.784;9.336;2024-02-28T14:45:13;7.50;99.90
37786;DHT22;23625;48.784;9.336;2024-02-28T14:47:42;7.60;99.90
37786;DHT22;23625;48.784;9.336;2024-02-28T14:50:10;7.60;99.90
37786;DHT22;23625;48.784;9.336;2024-02-28T14:52:40;7.50;99.90
37786;DHT22;23625;48.784;9.336;2024-02-28T14:55:09;7.50;99.90
37786;DHT22;23625;48.784;9.336;2024-02-28T14:57:36;7.50;99.90
37786;DHT22;23625;48.784;9.336;2024-02-28T15:00:02;7.50;99.90
37786;DHT22;23625;48.784;9.336;2024-02-28T15:02:33;7.60;99.90
37786;DHT22;23625;48.784;9.336;2024-02-28T15:04:58;7.60;99.90
37786;DHT22;23625;48.784;9.336;2024-02-28T15:07:25;7.60;99.90
37786;DHT22;23625;48.784;9.336;2024-02-28T15:09:51;7.60;99.90
37786;DHT22;23625;48.784;9.336;2024-02-28T15:12:16;7.60;99.90
37786;DHT22;23625;48.784;9.336;2024-02-28T15:14:42;7.70;99.90
37786;DHT22;23625;48.784;9.336;2024-02-28T15:17:07;7.60;99.90
37786;DHT22;23625;48.784;9.336;2024-02-28T15:19:33;7.60;99.90
37786;DHT22;23625;48.784;9.336;2024-02-28T15:21:59;7.60;99.90
37786;DHT22;23625;48.784;9.336;2024-02-28T15:24:25;7.60;99.90
37786;DHT22;23625;48.784;9.336;2024-02-28T15:26:55;7.60;99.90
37786;DHT22;23625;48.784;9.336;2024-02-28T15:29:21;7.60;99.90
37786;DHT22;23625;48.784;9.336;2024-02-28T15:31:47;7.60;99.90
37786;DHT22;23625;48.784;9.336;2024-02-28T15:34:12;7.60;99.90
37786;DHT22;23625;48.784;9.336;2024-02-28T15:36:38;7.80;99.90